createdAt,value
2017-11-12T00:02:12.339Z,38.55
2017-11-12T00:04:40.647Z,38.47
2017-11-12T00:07:08.196Z,38.50
2017-11-12T00:09:36.121Z,37.65
2017-11-12T00:12:03.708Z,40.53
2017-11-12T00:14:32.062Z,38.63
2017-11-12T00:16:59.651Z,38.38
2017-11-12T00:19:27.964Z,39.28
2017-11-12T00:21:55.560Z,40.30
2017-11-12T00:24:23.114Z,42.72
2017-11-12T00:26:50.662Z,41.63
2017-11-12T00:29:18.322Z,40.03
2017-11-12T00:31:45.903Z,41.45
2017-11-12T00:34:13.451Z,40.12
2017-11-12T00:36:41.066Z,40.42
2017-11-12T00:39:08.936Z,41.45
2017-11-12T00:41:36.487Z,40.90
2017-11-12T00:44:04.086Z,38.65
2017-11-12T00:46:31.626Z,48.35
2017-11-12T00:48:59.159Z,43.40
2017-11-12T00:51:27.503Z,41.70
2017-11-12T00:53:55.046Z,41.72
2017-11-12T00:56:22.895Z,45.38
2017-11-12T00:58:50.441Z,41.30
2017-11-12T01:01:17.986Z,39.50
2017-11-12T01:03:45.929Z,42.47
2017-11-12T01:06:13.479Z,42.17
2017-11-12T01:08:41.024Z,42.28
2017-11-12T01:11:08.614Z,41.40
2017-11-12T01:13:36.155Z,43.78
2017-11-12T01:16:03.739Z,43.55
2017-11-12T01:18:32.059Z,43.15
2017-11-12T01:21:01.179Z,46.25
2017-11-12T01:23:28.757Z,44.80
2017-11-12T01:25:56.299Z,42.40
2017-11-12T01:28:23.927Z,42.25
2017-11-12T01:30:51.467Z,43.20
2017-11-12T01:33:19.783Z,42.75
2017-11-12T01:35:47.380Z,43.92
2017-11-12T01:38:14.931Z,45.28
2017-11-12T01:40:42.741Z,43.00
2017-11-12T01:43:10.410Z,42.67
2017-11-12T01:45:37.957Z,41.70
2017-11-12T01:48:05.502Z,45.25
2017-11-12T01:50:33.879Z,46.20
2017-11-12T01:53:02.182Z,43.40
2017-11-12T01:55:29.720Z,46.20
2017-11-12T01:57:58.227Z,45.08
2017-11-12T02:00:25.784Z,47.08
2017-11-12T02:02:54.710Z,47.97
2017-11-12T02:05:22.251Z,47.55
2017-11-12T02:07:49.789Z,45.95
2017-11-12T02:10:17.374Z,48.08
2017-11-12T02:12:44.922Z,44.90
2017-11-12T02:15:12.755Z,44.22
2017-11-12T02:17:41.067Z,46.22
2017-11-12T02:20:08.691Z,46.53
2017-11-12T02:22:37.017Z,45.47
2017-11-12T02:25:04.561Z,46.15
2017-11-12T02:27:32.530Z,46.22
2017-11-12T02:30:00.080Z,44.90
2017-11-12T02:32:27.623Z,46.90
2017-11-12T02:35:00.885Z,44.45
2017-11-12T02:37:28.442Z,45.20
2017-11-12T02:39:55.988Z,47.13
2017-11-12T02:42:23.590Z,44.08
2017-11-12T02:44:51.136Z,42.33
2017-11-12T02:47:18.731Z,45.08
2017-11-12T02:49:47.044Z,43.92
2017-11-12T02:52:14.839Z,45.38
2017-11-12T02:54:42.395Z,46.95
2017-11-12T02:57:09.983Z,48.13
2017-11-12T02:59:38.299Z,47.88
2017-11-12T03:02:05.886Z,47.28
2017-11-12T03:04:33.445Z,48.15
2017-11-12T03:07:01.409Z,45.38
2017-11-12T03:09:28.955Z,45.15
2017-11-12T03:11:56.618Z,44.58
2017-11-12T03:14:24.165Z,46.70
2017-11-12T03:16:51.718Z,42.60
2017-11-12T03:19:19.319Z,42.92
2017-11-12T03:21:46.866Z,45.08
2017-11-12T03:24:14.734Z,42.55
2017-11-12T03:26:42.270Z,44.60
2017-11-12T03:29:09.946Z,44.25
2017-11-12T03:31:38.298Z,44.03
2017-11-12T03:34:05.886Z,45.25
2017-11-12T03:36:33.423Z,46.08
2017-11-12T03:39:01.418Z,48.42
2017-11-12T03:41:28.952Z,49.15
2017-11-12T03:43:56.491Z,48.72
2017-11-12T03:46:24.852Z,49.10
2017-11-12T03:48:52.792Z,47.25
2017-11-12T03:51:20.330Z,50.33
2017-11-12T03:53:47.864Z,48.20
2017-11-12T03:56:16.701Z,48.38
2017-11-12T03:58:44.290Z,49.22
2017-11-12T04:01:12.599Z,49.20
2017-11-12T04:03:40.182Z,48.85
2017-11-12T04:06:07.766Z,49.33
2017-11-12T04:08:35.306Z,49.80
2017-11-12T04:11:02.990Z,48.63
2017-11-12T04:13:30.534Z,47.47
2017-11-12T04:15:58.077Z,50.10
2017-11-12T04:18:25.669Z,48.30
2017-11-12T04:20:53.245Z,48.75
2017-11-12T04:23:20.833Z,46.97
2017-11-12T04:25:48.388Z,47.58
2017-11-12T04:28:17.103Z,47.45
2017-11-12T04:30:44.638Z,47.80
2017-11-12T04:33:13.014Z,48.75
2017-11-12T04:35:41.313Z,47.15
2017-11-12T04:38:08.853Z,48.75
2017-11-12T04:40:42.102Z,45.70
2017-11-12T04:43:10.022Z,46.25
2017-11-12T04:45:37.566Z,45.42
2017-11-12T04:48:05.874Z,46.75
2017-11-12T04:50:33.462Z,44.00
2017-11-12T04:53:01.001Z,43.42
2017-11-12T04:55:28.587Z,46.03
2017-11-12T04:57:56.178Z,42.40
2017-11-12T05:00:24.503Z,42.62
2017-11-12T05:02:52.565Z,43.00
2017-11-12T05:05:20.098Z,44.15
2017-11-12T05:07:47.645Z,41.67
2017-11-12T05:10:20.838Z,41.22
2017-11-12T05:12:49.146Z,41.63
2017-11-12T05:15:16.682Z,39.70
2017-11-12T05:17:45.029Z,39.35
2017-11-12T05:20:12.679Z,39.10
2017-11-12T05:22:40.218Z,40.55
2017-11-12T05:25:07.807Z,37.20
2017-11-12T05:27:35.349Z,38.28
2017-11-12T05:30:03.627Z,37.92
2017-11-12T05:32:31.168Z,35.58
2017-11-12T05:34:59.475Z,38.17
2017-11-12T05:37:27.326Z,37.40
2017-11-12T05:39:54.878Z,36.70
2017-11-12T05:42:22.418Z,36.70
2017-11-12T05:44:49.993Z,36.55
2017-11-12T05:47:17.886Z,35.75
2017-11-12T05:49:45.427Z,33.72
2017-11-12T05:52:13.786Z,32.30
2017-11-12T05:54:43.362Z,31.92
2017-11-12T05:57:10.897Z,31.70
2017-11-12T05:59:38.594Z,31.15
2017-11-12T06:02:06.904Z,29.98
2017-11-12T06:04:34.446Z,29.90
2017-11-12T06:07:02.978Z,31.60
2017-11-12T06:09:30.518Z,30.45
2017-11-12T06:11:58.955Z,30.00
2017-11-12T06:14:27.906Z,27.65
2017-11-12T06:16:55.447Z,28.83
2017-11-12T06:22:18.749Z,27.75
2017-11-12T06:24:46.341Z,28.85
2017-11-12T06:27:26.878Z,28.62
2017-11-12T06:32:35.290Z,28.45
2017-11-12T06:40:54.916Z,25.02
2017-11-12T06:43:22.454Z,26.30
2017-11-12T06:45:50.303Z,25.10
2017-11-12T06:48:17.838Z,23.90
2017-11-12T06:50:46.146Z,25.37
2017-11-12T06:53:14.753Z,24.30
2017-11-12T06:55:42.281Z,23.67
2017-11-12T06:58:09.814Z,23.30
2017-11-12T07:00:38.309Z,23.17
2017-11-12T07:03:06.718Z,22.98
2017-11-12T07:05:34.251Z,22.70
2017-11-12T07:08:02.560Z,23.05
2017-11-12T07:10:33.008Z,23.05
2017-11-12T07:13:00.548Z,23.55
2017-11-12T07:15:28.090Z,22.58
2017-11-12T07:17:55.930Z,22.48
2017-11-12T07:20:24.238Z,20.60
2017-11-12T07:22:51.773Z,20.60
2017-11-12T07:25:20.113Z,21.62
2017-11-12T07:27:47.705Z,20.62
2017-11-12T07:30:16.353Z,20.65
2017-11-12T07:32:43.891Z,19.25
2017-11-12T07:35:12.977Z,20.00
2017-11-12T07:37:40.510Z,21.23
2017-11-12T07:40:08.809Z,26.12
2017-11-12T07:42:36.388Z,30.17
2017-11-12T07:45:04.084Z,25.35
2017-11-12T07:47:31.630Z,21.37
2017-11-12T07:49:59.161Z,36.50
2017-11-12T07:52:26.921Z,80.93
2017-11-12T07:54:55.716Z,86.10
2017-11-12T07:57:23.260Z,117.75
2017-11-12T07:59:50.849Z,20.80
2017-11-12T08:02:18.448Z,19.30
2017-11-12T08:04:46.766Z,21.30
2017-11-12T08:07:14.303Z,29.70
2017-11-12T08:09:42.646Z,21.83
2017-11-12T08:12:10.290Z,19.55
2017-11-12T08:14:37.826Z,18.73
2017-11-12T08:17:05.565Z,18.98
2017-11-12T08:19:33.867Z,20.83
2017-11-12T08:22:01.406Z,19.85
2017-11-12T08:24:29.786Z,23.27
2017-11-12T08:26:57.379Z,19.83
2017-11-12T08:29:24.930Z,20.42
2017-11-12T08:31:52.564Z,22.73
2017-11-12T08:34:20.155Z,20.08
2017-11-12T08:36:48.461Z,17.70
2017-11-12T08:39:16.058Z,24.33
2017-11-12T08:41:44.358Z,18.65
2017-11-12T08:44:11.964Z,17.55
2017-11-12T08:46:39.502Z,17.80
2017-11-12T08:49:07.043Z,18.45
2017-11-12T08:51:34.644Z,18.90
2017-11-12T08:54:02.346Z,18.70
2017-11-12T08:56:30.654Z,19.25
2017-11-12T08:58:58.189Z,19.30
2017-11-12T09:01:26.913Z,17.95
2017-11-12T09:03:54.452Z,17.60
2017-11-12T09:06:22.757Z,18.92
2017-11-12T09:08:50.355Z,19.33
2017-11-12T09:11:18.663Z,18.58
2017-11-12T09:13:46.198Z,18.15
2017-11-12T09:16:18.834Z,16.35
2017-11-12T09:18:46.387Z,17.30
2017-11-12T09:21:13.925Z,16.73
2017-11-12T09:23:41.533Z,20.27
2017-11-12T09:26:09.089Z,18.80
2017-11-12T09:28:40.377Z,18.87
2017-11-12T09:31:08.133Z,17.17
2017-11-12T09:33:36.442Z,16.37
2017-11-12T09:36:04.785Z,17.48
2017-11-12T09:38:33.129Z,14.68
2017-11-12T09:41:00.677Z,12.85
2017-11-12T09:43:28.275Z,24.70
2017-11-12T09:45:56.635Z,12.30
2017-11-12T09:48:24.177Z,13.98
2017-11-12T09:50:51.749Z,12.48
2017-11-12T09:53:19.281Z,11.75
2017-11-12T09:55:46.864Z,11.15
2017-11-12T09:58:14.403Z,11.77
2017-11-12T10:00:42.123Z,12.52
2017-11-12T10:03:10.426Z,15.75
2017-11-12T10:05:37.967Z,12.73
2017-11-12T10:08:05.909Z,12.75
2017-11-12T10:10:33.448Z,12.30
2017-11-12T10:13:00.989Z,11.15
2017-11-12T10:15:28.569Z,8.18
2017-11-12T10:17:56.141Z,9.50
2017-11-12T10:20:23.677Z,7.57
2017-11-12T10:22:51.661Z,6.10
2017-11-12T10:25:19.187Z,6.05
2017-11-12T10:27:46.730Z,5.90
2017-11-12T10:30:14.358Z,6.40
2017-11-12T10:32:41.965Z,6.15
2017-11-12T10:35:09.492Z,6.68
2017-11-12T10:37:37.795Z,6.50
2017-11-12T10:40:05.377Z,8.20
2017-11-12T10:42:32.905Z,5.95
2017-11-12T10:45:01.257Z,7.70
2017-11-12T10:47:29.574Z,7.32
2017-11-12T10:49:57.283Z,10.20
2017-11-12T10:52:24.820Z,7.72
2017-11-12T10:54:52.362Z,18.73
2017-11-12T10:57:20.002Z,9.48
2017-11-12T10:59:48.365Z,8.02
2017-11-12T11:02:16.666Z,9.02
2017-11-12T11:04:44.204Z,24.08
2017-11-12T11:07:12.598Z,11.05
2017-11-12T11:09:40.142Z,9.98
2017-11-12T11:12:08.457Z,11.00
2017-11-12T11:14:36.258Z,14.30
2017-11-12T11:17:03.950Z,13.32
2017-11-12T11:19:32.289Z,11.23
2017-11-12T11:21:59.821Z,14.25
2017-11-12T11:24:28.231Z,6.80
2017-11-12T11:26:55.804Z,8.48
2017-11-12T11:29:23.802Z,7.80
2017-11-12T11:31:52.146Z,8.40
2017-11-12T11:34:19.693Z,15.73
2017-11-12T11:36:47.226Z,13.50
2017-11-12T11:39:14.805Z,9.95
2017-11-12T11:41:42.350Z,149.55
2017-11-12T11:44:10.079Z,24.12
2017-11-12T11:46:38.379Z,8.85
2017-11-12T11:49:06.081Z,21.42
2017-11-12T11:51:33.613Z,11.73
2017-11-12T11:54:01.146Z,10.20
2017-11-12T11:56:29.496Z,9.40
2017-11-12T11:58:57.074Z,9.40
2017-11-12T12:01:25.422Z,10.85
2017-11-12T12:03:53.385Z,10.75
2017-11-12T12:06:20.924Z,11.15
2017-11-12T12:08:49.229Z,11.63
2017-11-12T12:11:16.810Z,10.45
2017-11-12T12:13:44.439Z,11.60
2017-11-12T12:16:12.003Z,10.82
2017-11-12T12:18:39.529Z,10.93
2017-11-12T12:21:07.109Z,10.88
2017-11-12T12:23:34.729Z,12.10
2017-11-12T12:26:03.059Z,13.13
2017-11-12T12:28:30.603Z,12.43
2017-11-12T12:30:58.270Z,12.10
2017-11-12T12:33:25.806Z,11.82
2017-11-12T12:35:53.363Z,11.30
2017-11-12T12:38:21.405Z,12.57
2017-11-12T12:40:48.947Z,14.23
2017-11-12T12:43:16.486Z,12.88
2017-11-12T12:45:44.093Z,13.25
2017-11-12T12:48:12.397Z,12.80
2017-11-12T12:50:39.930Z,15.38
2017-11-12T12:53:08.286Z,12.90
2017-11-12T12:55:36.014Z,16.75
2017-11-12T12:58:03.553Z,14.13
2017-11-12T13:00:31.566Z,15.38
2017-11-12T13:02:59.106Z,19.62
2017-11-12T13:05:26.657Z,30.75
2017-11-12T13:07:54.284Z,20.50
2017-11-12T13:10:22.625Z,20.58
2017-11-12T13:12:50.166Z,16.08
2017-11-12T13:15:18.087Z,16.60
2017-11-12T13:17:46.442Z,16.00
2017-11-12T13:20:13.986Z,20.50
2017-11-12T13:22:41.597Z,17.10
2017-11-12T13:25:09.149Z,17.58
2017-11-12T13:27:37.449Z,18.87
2017-11-12T13:30:05.293Z,15.80
2017-11-12T13:32:33.603Z,19.98
2017-11-12T13:35:01.142Z,17.67
2017-11-12T13:37:29.632Z,16.80
2017-11-12T13:39:57.213Z,17.55
2017-11-12T13:42:24.794Z,17.95
2017-11-12T13:44:52.366Z,15.65
2017-11-12T13:47:19.902Z,14.87
2017-11-12T13:49:47.581Z,16.77
2017-11-12T13:52:15.117Z,15.77
2017-11-12T13:54:42.712Z,15.07
2017-11-12T13:57:10.386Z,13.70
2017-11-12T13:59:37.928Z,14.32
2017-11-12T14:02:06.729Z,12.85
2017-11-12T14:04:34.266Z,12.70
2017-11-12T14:07:01.797Z,13.20
2017-11-12T14:09:30.501Z,11.10
2017-11-12T14:11:58.053Z,12.77
2017-11-12T14:14:25.598Z,12.50
2017-11-12T14:16:53.328Z,15.20
2017-11-12T14:19:21.642Z,18.20
2017-11-12T14:21:49.217Z,15.07
2017-11-12T14:24:16.815Z,14.50
2017-11-12T14:26:44.354Z,15.75
2017-11-12T14:29:11.937Z,12.95
2017-11-12T14:31:39.641Z,14.20
2017-11-12T14:34:07.177Z,21.92
2017-11-12T14:36:35.659Z,9.65
2017-11-12T14:39:03.978Z,14.23
2017-11-12T14:41:31.558Z,12.65
2017-11-12T14:43:59.102Z,13.30
2017-11-12T14:46:26.694Z,11.05
2017-11-12T14:48:54.257Z,12.65
2017-11-12T14:51:21.788Z,9.23
2017-11-12T14:53:49.369Z,7.95
2017-11-12T14:56:16.954Z,6.40
2017-11-12T14:58:45.247Z,6.95
2017-11-12T15:01:12.782Z,5.95
2017-11-12T15:03:40.507Z,7.60
2017-11-12T15:06:08.215Z,5.55
2017-11-12T15:08:36.507Z,5.50
2017-11-12T15:11:09.739Z,5.62
2017-11-12T15:13:37.286Z,5.70
2017-11-12T15:16:04.817Z,6.20
2017-11-12T15:18:33.155Z,6.90
2017-11-12T15:21:00.722Z,6.47
2017-11-12T15:23:28.292Z,7.03
2017-11-12T15:25:55.826Z,7.20
2017-11-12T15:28:23.390Z,8.00
2017-11-12T15:30:50.910Z,8.55
2017-11-12T15:33:18.911Z,11.15
2017-11-12T15:35:46.457Z,14.80
2017-11-12T15:38:14.113Z,16.00
2017-11-12T15:40:41.659Z,21.42
2017-11-12T15:43:09.237Z,16.87
2017-11-12T15:45:36.784Z,16.80
2017-11-12T15:48:04.389Z,13.57
2017-11-12T15:50:31.921Z,19.25
2017-11-12T15:53:00.250Z,38.00
2017-11-12T15:55:28.621Z,16.75
2017-11-12T15:57:56.992Z,18.37
2017-11-12T16:00:24.522Z,29.52
2017-11-12T16:02:52.061Z,21.92
2017-11-12T16:05:19.707Z,16.92
2017-11-12T16:07:47.249Z,16.95
2017-11-12T16:10:14.877Z,17.90
2017-11-12T16:12:42.434Z,20.85
2017-11-12T16:15:11.517Z,30.65
2017-11-12T16:17:39.051Z,29.25
2017-11-12T16:20:07.866Z,31.25
2017-11-12T16:22:35.397Z,29.75
2017-11-12T16:25:03.006Z,27.52
2017-11-12T16:27:30.541Z,19.05
2017-11-12T16:29:58.073Z,21.98
2017-11-12T16:32:27.050Z,24.60
2017-11-12T16:34:55.474Z,29.67
2017-11-12T16:37:23.020Z,25.10
2017-11-12T16:39:50.555Z,21.08
2017-11-12T16:42:18.891Z,20.60
2017-11-12T16:44:46.429Z,22.85
2017-11-12T16:47:14.322Z,23.10
2017-11-12T16:49:41.854Z,20.70
2017-11-12T16:52:09.389Z,23.12
2017-11-12T16:54:36.962Z,22.65
2017-11-12T16:57:04.502Z,35.05
2017-11-12T16:59:32.115Z,86.15
2017-11-12T17:01:59.686Z,30.42
2017-11-12T17:04:28.274Z,26.48
2017-11-12T17:06:55.813Z,23.73
2017-11-12T17:09:23.453Z,27.25
2017-11-12T17:11:51.034Z,35.67
2017-11-12T17:14:18.622Z,27.80
2017-11-12T17:16:46.938Z,24.70
2017-11-12T17:19:14.533Z,27.48
2017-11-12T17:21:42.062Z,23.33
2017-11-12T17:24:09.595Z,26.83
2017-11-12T17:26:37.938Z,40.95
2017-11-12T17:29:05.534Z,27.05
2017-11-12T17:31:34.177Z,37.90
2017-11-12T17:34:01.708Z,31.35
2017-11-12T17:36:29.594Z,29.23
2017-11-12T17:38:57.177Z,27.08
2017-11-12T17:41:24.714Z,25.88
2017-11-12T17:43:52.290Z,26.58
2017-11-12T17:46:19.829Z,38.25
2017-11-12T17:48:47.441Z,125.25
2017-11-12T17:51:15.743Z,28.20
2017-11-12T17:53:43.279Z,28.02
2017-11-12T17:56:11.775Z,85.35
2017-11-12T17:58:40.152Z,25.20
2017-11-12T18:01:07.699Z,21.10
2017-11-12T18:03:35.418Z,26.25
2017-11-12T18:06:02.959Z,22.33
2017-11-12T18:08:30.535Z,25.37
2017-11-12T18:10:58.067Z,24.77
2017-11-12T18:13:25.692Z,26.85
2017-11-12T18:15:53.228Z,22.55
2017-11-12T18:18:20.756Z,29.37
2017-11-12T18:20:48.329Z,24.55
2017-11-12T18:23:19.590Z,25.42
2017-11-12T18:25:47.124Z,24.65
2017-11-12T18:28:15.425Z,24.37
2017-11-12T18:30:44.315Z,21.55
2017-11-12T18:33:12.062Z,21.98
2017-11-12T18:35:39.642Z,18.75
2017-11-12T18:38:07.185Z,23.15
2017-11-12T18:40:34.763Z,26.17
2017-11-12T18:43:02.301Z,21.60
2017-11-12T18:45:30.027Z,22.25
2017-11-12T18:47:58.325Z,24.48
2017-11-12T18:50:25.899Z,24.00
2017-11-12T18:52:54.233Z,27.67
2017-11-12T18:55:40.658Z,32.03
2017-11-12T18:58:13.978Z,42.42
2017-11-12T19:00:57.433Z,28.90
2017-11-12T19:03:30.729Z,24.15
2017-11-12T19:06:03.946Z,27.10
2017-11-12T19:08:32.134Z,23.35
2017-11-12T19:11:00.430Z,25.50
2017-11-12T19:13:32.846Z,23.65
2017-11-12T19:16:00.381Z,25.15
2017-11-12T19:18:31.165Z,27.13
2017-11-12T19:21:02.689Z,27.27
2017-11-12T19:23:34.918Z,29.33
2017-11-12T19:26:02.453Z,28.58
2017-11-12T19:28:30.790Z,29.95
2017-11-12T19:30:58.562Z,30.88
2017-11-12T19:33:26.326Z,32.88
2017-11-12T19:35:53.866Z,32.42
2017-11-12T19:38:21.437Z,33.00
2017-11-12T19:40:48.969Z,33.25
2017-11-12T19:43:16.565Z,33.42
2017-11-12T19:45:44.169Z,32.35
2017-11-12T19:48:12.476Z,31.52
2017-11-12T19:50:40.016Z,32.30
2017-11-12T19:53:10.819Z,30.75
2017-11-12T19:55:38.397Z,29.30
2017-11-12T19:58:06.737Z,29.55
2017-11-12T20:00:34.269Z,29.75
2017-11-12T20:03:02.030Z,27.70
2017-11-12T20:05:29.646Z,29.05
2017-11-12T20:07:57.181Z,29.85
2017-11-12T20:10:24.767Z,29.42
2017-11-12T20:12:52.306Z,29.52
2017-11-12T20:15:19.834Z,29.87
2017-11-12T20:17:52.338Z,27.62
2017-11-12T20:20:19.884Z,28.75
2017-11-12T20:22:47.420Z,29.33
2017-11-12T20:25:14.996Z,30.55
2017-11-12T20:27:42.530Z,31.40
2017-11-12T20:30:10.123Z,30.98
2017-11-12T20:32:37.659Z,31.83
2017-11-12T20:35:05.190Z,29.80
2017-11-12T20:37:33.847Z,28.87
2017-11-12T20:40:01.658Z,29.48
2017-11-12T20:42:33.702Z,29.77
2017-11-12T20:45:01.237Z,27.48
2017-11-12T20:47:28.846Z,27.95
2017-11-12T20:49:57.146Z,26.75
2017-11-12T20:52:24.678Z,29.20
2017-11-12T20:54:53.160Z,27.50
2017-11-12T20:57:22.819Z,27.20
2017-11-12T20:59:50.362Z,27.20
2017-11-12T21:02:17.905Z,27.73
2017-11-12T21:05:04.243Z,28.15
2017-11-12T21:07:31.817Z,27.45
2017-11-12T21:09:59.575Z,26.52
2017-11-12T21:12:27.174Z,27.37
2017-11-12T21:14:55.469Z,26.90
2017-11-12T21:17:23.013Z,26.55
2017-11-12T21:20:10.030Z,28.30
2017-11-12T21:22:43.210Z,27.75
2017-11-12T21:25:11.621Z,28.77
2017-11-12T21:27:39.157Z,27.05
2017-11-12T21:30:10.829Z,27.95
2017-11-12T21:32:39.823Z,27.37
2017-11-12T21:35:10.358Z,28.35
2017-11-12T21:37:43.541Z,28.17
2017-11-12T21:40:11.282Z,29.65
2017-11-12T21:42:39.589Z,30.08
2017-11-12T21:45:07.190Z,31.75
2017-11-12T21:47:34.720Z,29.80
2017-11-12T21:50:02.289Z,30.23
2017-11-12T21:52:30.624Z,28.45
2017-11-12T21:54:58.922Z,29.48
2017-11-12T21:57:26.928Z,29.65
2017-11-12T21:59:54.467Z,29.33
2017-11-12T22:02:22.006Z,29.80
2017-11-12T22:04:49.911Z,29.37
2017-11-12T22:07:17.442Z,29.05
2017-11-12T22:09:45.700Z,30.92
2017-11-12T22:12:13.515Z,30.50
2017-11-12T22:14:41.072Z,31.85
2017-11-12T22:17:08.781Z,29.67
2017-11-12T22:19:37.086Z,30.67
2017-11-12T22:22:04.619Z,30.02
2017-11-12T22:24:32.998Z,30.00
2017-11-12T22:27:01.293Z,28.38
2017-11-12T22:29:28.825Z,31.23
2017-11-12T22:31:57.281Z,28.98
2017-11-12T22:34:24.817Z,30.20
2017-11-12T22:36:52.344Z,29.63
2017-11-12T22:39:25.496Z,29.15
2017-11-12T22:41:53.220Z,32.90
2017-11-12T22:44:20.753Z,29.67
2017-11-12T22:46:49.133Z,31.20
2017-11-12T22:49:17.431Z,31.55
2017-11-12T22:51:46.228Z,29.67
2017-11-12T22:54:13.758Z,28.85
2017-11-12T22:56:42.056Z,29.67
2017-11-12T22:59:09.635Z,29.63
2017-11-12T23:01:37.169Z,31.33
2017-11-12T23:04:04.847Z,32.70
2017-11-12T23:06:32.377Z,30.42
2017-11-12T23:09:00.772Z,31.92
2017-11-12T23:11:28.310Z,32.22
2017-11-12T23:13:56.661Z,30.58
2017-11-12T23:16:24.197Z,28.35
2017-11-12T23:18:51.748Z,28.15
2017-11-12T23:21:20.556Z,28.77
2017-11-12T23:23:48.149Z,28.62
2017-11-12T23:26:16.446Z,27.77
2017-11-12T23:28:43.977Z,31.87
2017-11-12T23:31:11.579Z,31.23
2017-11-12T23:33:39.106Z,30.83
2017-11-12T23:36:07.405Z,29.65
2017-11-12T23:38:35.122Z,28.90
2017-11-12T23:41:02.790Z,28.30
2017-11-12T23:43:30.372Z,28.87
2017-11-12T23:45:58.674Z,29.42
2017-11-12T23:48:26.245Z,27.62
2017-11-12T23:50:53.785Z,25.92
2017-11-12T23:53:22.265Z,28.02
2017-11-12T23:55:49.806Z,28.05
2017-11-12T23:58:18.154Z,27.05
